createdAt,value
2022-11-29T00:03:01.543Z,81.42
2022-11-29T00:08:05.151Z,81.43
2022-11-29T00:13:11.089Z,81.54
2022-11-29T00:18:14.362Z,81.23
2022-11-29T00:23:18.623Z,80.83
2022-11-29T00:28:21.840Z,80.60
2022-11-29T00:33:25.084Z,80.60
2022-11-29T00:38:28.450Z,80.72
2022-11-29T00:43:31.744Z,80.69
2022-11-29T00:48:36.075Z,80.62
2022-11-29T00:53:39.800Z,80.60
2022-11-29T00:58:43.890Z,80.45
2022-11-29T01:03:47.451Z,80.35
2022-11-29T01:08:51.254Z,79.93
2022-11-29T01:13:57.572Z,79.84
2022-11-29T01:19:01.419Z,79.36
2022-11-29T01:24:05.864Z,79.32
2022-11-29T01:29:13.438Z,79.67
2022-11-29T01:34:16.669Z,80.00
2022-11-29T01:39:19.847Z,80.17
2022-11-29T01:44:23.340Z,80.24
2022-11-29T01:49:34.549Z,80.16
2022-11-29T01:54:44.073Z,80.02
2022-11-29T01:59:51.670Z,79.86
2022-11-29T02:04:55.185Z,80.04
2022-11-29T02:09:58.711Z,80.29
2022-11-29T02:15:33.002Z,80.44
2022-11-29T02:20:46.309Z,80.40
2022-11-29T02:26:17.380Z,80.62
2022-11-29T02:31:52.182Z,80.72
2022-11-29T02:37:33.133Z,80.78
2022-11-29T02:42:56.622Z,80.69
2022-11-29T02:48:38.063Z,80.69
2022-11-29T02:53:48.152Z,80.85
2022-11-29T02:59:09.500Z,80.89
2022-11-29T03:04:38.263Z,80.92
2022-11-29T03:09:54.815Z,81.06
2022-11-29T03:15:03.781Z,81.11
2022-11-29T03:20:28.851Z,81.20
2022-11-29T03:25:48.481Z,81.09
2022-11-29T03:31:16.555Z,81.06
2022-11-29T03:36:42.541Z,80.98
2022-11-29T03:42:06.326Z,80.97
2022-11-29T03:47:24.080Z,80.95
2022-11-29T03:52:35.875Z,80.97
2022-11-29T03:57:54.332Z,81.00
2022-11-29T04:03:09.379Z,80.95
2022-11-29T04:08:31.041Z,80.93
2022-11-29T04:13:37.965Z,81.00
2022-11-29T04:19:24.949Z,81.04
2022-11-29T04:24:45.475Z,81.13
2022-11-29T04:30:15.137Z,81.13
2022-11-29T04:35:33.499Z,81.09
2022-11-29T04:41:25.080Z,81.17
2022-11-29T04:46:49.516Z,81.42
2022-11-29T04:52:01.599Z,81.47
2022-11-29T04:57:14.126Z,81.66
2022-11-29T05:02:54.020Z,81.98
2022-11-29T05:08:15.908Z,82.14
2022-11-29T05:13:43.555Z,82.19
2022-11-29T05:19:08.583Z,82.22
2022-11-29T05:24:34.252Z,82.26
2022-11-29T05:29:46.524Z,82.38
2022-11-29T05:35:15.797Z,82.41
2022-11-29T05:40:27.862Z,82.43
2022-11-29T05:46:08.601Z,82.46
2022-11-29T05:51:39.330Z,82.53
2022-11-29T05:57:05.609Z,82.39
2022-11-29T06:02:11.570Z,82.08
2022-11-29T06:07:59.794Z,81.95
2022-11-29T06:13:44.884Z,81.88
2022-11-29T06:19:17.430Z,81.66
2022-11-29T06:24:36.837Z,81.52
2022-11-29T06:30:09.383Z,81.52
2022-11-29T06:35:54.167Z,81.47
2022-11-29T06:41:02.030Z,81.25
2022-11-29T06:46:26.456Z,80.98
2022-11-29T06:51:57.969Z,80.60
2022-11-29T06:57:21.317Z,80.56
2022-11-29T07:02:51.080Z,80.39
2022-11-29T07:08:02.621Z,80.40
2022-11-29T07:13:06.959Z,80.40
2022-11-29T07:18:19.456Z,80.55
2022-11-29T07:23:42.392Z,80.51
2022-11-29T07:29:07.188Z,80.18
2022-11-29T07:34:32.655Z,80.16
2022-11-29T07:39:54.412Z,80.20
2022-11-29T07:45:06.667Z,80.17
2022-11-29T07:50:11.609Z,80.19
2022-11-29T07:55:18.907Z,80.15
2022-11-29T08:00:25.532Z,80.04
2022-11-29T08:05:28.839Z,79.86
2022-11-29T08:10:32.056Z,79.72
2022-11-29T08:15:36.198Z,79.75
2022-11-29T08:20:41.950Z,79.32
2022-11-29T08:25:46.181Z,79.22
2022-11-29T08:30:49.541Z,79.12
2022-11-29T08:35:52.982Z,78.89
2022-11-29T08:41:16.296Z,79.05
2022-11-29T08:46:21.105Z,78.93
2022-11-29T08:51:24.306Z,78.95
2022-11-29T09:01:51.956Z,78.54
2022-11-29T09:06:55.696Z,78.72
2022-11-29T09:11:58.819Z,78.82
2022-11-29T09:17:02.099Z,78.45
2022-11-29T09:22:05.346Z,78.76
2022-11-29T09:27:08.602Z,78.82
2022-11-29T09:32:11.820Z,78.83
2022-11-29T09:37:15.400Z,78.79
2022-11-29T09:42:47.211Z,78.64
2022-11-29T09:48:23.433Z,78.56
2022-11-29T09:53:44.052Z,78.54
2022-11-29T09:58:55.714Z,78.28
2022-11-29T10:04:22.530Z,78.53
2022-11-29T10:09:37.508Z,78.50
2022-11-29T10:14:56.568Z,78.57
2022-11-29T10:20:18.952Z,78.54
2022-11-29T10:25:34.887Z,78.44
2022-11-29T10:30:41.056Z,78.42
2022-11-29T10:35:46.435Z,78.19
2022-11-29T10:40:57.851Z,78.07
2022-11-29T10:46:02.793Z,78.20
2022-11-29T10:51:16.283Z,78.20
2022-11-29T10:56:29.672Z,77.93
2022-11-29T11:01:37.475Z,77.83
2022-11-29T11:06:52.593Z,77.97
2022-11-29T11:12:23.422Z,77.67
2022-11-29T11:17:32.969Z,77.38
2022-11-29T11:22:40.112Z,77.71
2022-11-29T11:27:43.347Z,77.85
2022-11-29T11:33:14.957Z,77.82
2022-11-29T11:38:18.215Z,77.76
2022-11-29T11:43:22.363Z,77.55
2022-11-29T11:48:25.704Z,77.61
2022-11-29T11:53:36.743Z,77.58
2022-11-29T11:58:46.311Z,77.73
2022-11-29T12:04:20.758Z,77.74
2022-11-29T12:09:44.079Z,77.74
2022-11-29T12:14:58.062Z,77.85
2022-11-29T12:20:14.606Z,77.87
2022-11-29T12:25:24.583Z,77.85
2022-11-29T12:30:28.668Z,77.81
2022-11-29T12:36:00.090Z,77.84
2022-11-29T12:41:16.906Z,77.96
2022-11-29T12:46:24.042Z,77.98
2022-11-29T12:51:51.026Z,77.87
2022-11-29T12:57:08.267Z,77.82
2022-11-29T13:02:24.617Z,77.86
2022-11-29T13:07:57.466Z,77.96
2022-11-29T13:13:19.301Z,77.99
2022-11-29T13:18:31.940Z,78.02
2022-11-29T13:24:07.224Z,77.99
2022-11-29T13:29:03.760Z,78.03
2022-11-29T13:34:46.075Z,78.21
2022-11-29T13:40:09.767Z,78.27
2022-11-29T13:45:24.822Z,78.39
2022-11-29T13:50:42.276Z,78.43
2022-11-29T13:55:47.126Z,78.52
2022-11-29T14:00:52.695Z,78.55
2022-11-29T14:06:02.212Z,78.63
2022-11-29T14:11:14.689Z,78.72
2022-11-29T14:16:27.092Z,78.89
2022-11-29T14:22:05.725Z,79.07
2022-11-29T14:27:10.231Z,79.25
2022-11-29T14:32:41.557Z,79.25
2022-11-29T14:38:30.944Z,79.32
2022-11-29T14:43:38.681Z,79.39
2022-11-29T14:48:47.668Z,79.36
2022-11-29T14:54:16.460Z,79.40
2022-11-29T14:59:44.175Z,79.42
2022-11-29T15:04:55.016Z,79.52
2022-11-29T15:10:03.547Z,79.66
2022-11-29T15:15:32.382Z,79.74
2022-11-29T15:20:58.297Z,79.79
2022-11-29T15:26:01.632Z,79.81
2022-11-29T15:31:11.394Z,79.80
2022-11-29T15:36:20.868Z,79.68
2022-11-29T15:41:35.770Z,79.79
2022-11-29T15:46:39.447Z,79.85
2022-11-29T15:51:43.042Z,79.81
2022-11-29T15:57:09.316Z,79.86
2022-11-29T16:02:24.505Z,79.89
2022-11-29T16:07:32.999Z,79.81
2022-11-29T16:12:52.288Z,79.75
2022-11-29T16:17:55.819Z,79.68
2022-11-29T16:23:08.230Z,79.34
2022-11-29T16:28:14.089Z,79.63
2022-11-29T16:33:25.340Z,79.66
2022-11-29T16:38:29.089Z,79.53
2022-11-29T16:43:51.027Z,79.60
2022-11-29T16:48:56.279Z,79.60
2022-11-29T16:54:21.566Z,79.48
2022-11-29T16:59:28.614Z,79.34
2022-11-29T17:04:33.398Z,79.45
2022-11-29T17:09:41.367Z,79.35
2022-11-29T17:14:44.839Z,79.03
2022-11-29T17:19:50.692Z,78.95
2022-11-29T17:24:54.343Z,78.94
2022-11-29T17:29:58.239Z,78.85
2022-11-29T17:35:01.368Z,78.92
2022-11-29T17:40:05.341Z,79.01
2022-11-29T17:45:09.009Z,78.71
2022-11-29T17:50:13.034Z,78.75
2022-11-29T17:55:20.496Z,78.52
2022-11-29T18:00:24.486Z,78.34
2022-11-29T18:05:34.348Z,78.63
2022-11-29T18:10:38.188Z,78.50
2022-11-29T18:15:41.305Z,78.55
2022-11-29T18:20:44.649Z,78.47
2022-11-29T18:26:06.860Z,78.48
2022-11-29T18:31:18.891Z,78.09
2022-11-29T18:36:28.852Z,78.09
2022-11-29T18:41:32.517Z,78.43
2022-11-29T18:46:38.603Z,78.34
2022-11-29T18:51:45.259Z,78.14
2022-11-29T18:56:52.473Z,78.28
2022-11-29T19:01:56.926Z,78.22
2022-11-29T19:07:00.168Z,78.07
2022-11-29T19:12:04.303Z,78.16
2022-11-29T19:17:07.497Z,78.00
2022-11-29T19:22:10.681Z,77.93
2022-11-29T19:27:13.838Z,77.78
2022-11-29T19:32:17.162Z,78.22
2022-11-29T19:37:20.375Z,77.91
2022-11-29T19:42:24.091Z,77.76
2022-11-29T19:47:27.324Z,77.60
2022-11-29T19:52:30.554Z,77.72
2022-11-29T19:57:34.036Z,77.65
2022-11-29T20:02:37.408Z,77.78
2022-11-29T20:07:40.657Z,77.90
2022-11-29T20:12:43.846Z,77.51
2022-11-29T20:17:48.859Z,77.35
2022-11-29T20:22:52.853Z,77.24
2022-11-29T20:27:56.293Z,77.39
2022-11-29T20:32:59.776Z,78.00
2022-11-29T20:38:28.736Z,78.02
2022-11-29T20:43:49.485Z,78.18
2022-11-29T20:48:54.014Z,78.13
2022-11-29T20:53:59.100Z,78.05
2022-11-29T20:59:02.300Z,78.03
2022-11-29T21:04:05.684Z,78.01
2022-11-29T21:09:10.980Z,78.00
2022-11-29T21:14:14.439Z,77.98
2022-11-29T21:19:25.235Z,78.03
2022-11-29T21:24:37.740Z,77.98
2022-11-29T21:29:41.385Z,77.90
2022-11-29T21:34:44.782Z,78.02
2022-11-29T21:39:51.848Z,78.16
2022-11-29T21:44:56.247Z,78.19
2022-11-29T21:50:00.129Z,78.29
2022-11-29T21:55:03.843Z,78.38
2022-11-29T22:00:07.716Z,78.43
2022-11-29T22:05:11.925Z,78.50
2022-11-29T22:10:18.127Z,78.45
2022-11-29T22:15:24.883Z,78.42
2022-11-29T22:20:28.626Z,78.43
2022-11-29T22:25:32.141Z,78.52
2022-11-29T22:30:36.159Z,78.60
2022-11-29T22:35:44.053Z,78.65
2022-11-29T22:40:47.216Z,78.68
2022-11-29T22:45:50.527Z,78.82
2022-11-29T22:51:01.366Z,78.88
2022-11-29T22:56:07.245Z,78.88
2022-11-29T23:01:16.061Z,78.83
2022-11-29T23:06:30.920Z,78.88
2022-11-29T23:11:34.500Z,78.83
2022-11-29T23:16:38.039Z,78.73
2022-11-29T23:21:42.221Z,78.66
2022-11-29T23:26:47.756Z,78.69
2022-11-29T23:31:51.152Z,78.78
2022-11-29T23:36:54.308Z,78.82
2022-11-29T23:41:57.522Z,78.92
2022-11-29T23:47:00.700Z,78.96
2022-11-29T23:52:04.056Z,78.95
2022-11-29T23:57:07.430Z,79.15
